Time;durP1;ratioP1;P1;durP2;ratioP2;P2;SDS_P1;SDS_P2;PMS_P1;PMS_P2;Temp;Humidity;BMP_temperature;BMP_pressure;BME280_temperature;BME280_humidity;BME280_pressure;Samples;Min_cycle;Max_cycle;Signal;HPM_P1;HPM_P2
2023/03/03 00:01:54;;;;;;;19.75;9.32;;;3.50;99.90;;;;;;7407723;19;19921;-71
2023/03/03 00:04:23;;;;;;;20.63;9.55;;;4.10;99.90;;;;;;7408110;19;19970;-71
2023/03/03 00:06:52;;;;;;;21.30;9.90;;;4.00;99.90;;;;;;7405081;19;19998;-72
2023/03/03 00:09:21;;;;;;;18.88;8.93;;;4.10;99.90;;;;;;7405092;19;19958;-71
2023/03/03 00:11:55;;;;;;;23.30;10.23;;;4.00;99.90;;;;;;7407548;19;19942;-71
2023/03/03 00:14:30;;;;;;;20.38;9.35;;;4.30;99.90;;;;;;7406366;19;19940;-71
2023/03/03 00:17:02;;;;;;;20.83;9.57;;;3.20;99.90;;;;;;7404464;19;19925;-71
2023/03/03 00:19:38;;;;;;;24.02;11.13;;;4.10;99.90;;;;;;7405447;19;19929;-71
2023/03/03 00:22:18;;;;;;;25.50;10.35;;;3.40;99.90;;;;;;7403614;19;20241;-71
2023/03/03 00:24:48;;;;;;;28.00;11.60;;;4.10;99.90;;;;;;7405683;19;19989;-71
2023/03/03 00:27:24;;;;;;;25.42;10.95;;;4.20;99.90;;;;;;7405225;19;19919;-71
2023/03/03 00:29:58;;;;;;;27.88;10.40;;;4.10;99.90;;;;;;7405429;19;19919;-70
2023/03/03 00:32:29;;;;;;;25.48;10.38;;;4.10;99.90;;;;;;7404082;19;19923;-71
2023/03/03 00:35:03;;;;;;;17.75;7.47;;;4.10;99.90;;;;;;7401004;19;20341;-71
2023/03/03 00:37:34;;;;;;;17.15;8.13;;;4.60;99.90;;;;;;7405170;19;19929;-71
2023/03/03 00:40:17;;;;;;;16.38;7.75;;;4.10;99.90;;;;;;7405433;19;20355;-71
2023/03/03 00:42:49;;;;;;;18.90;7.15;;;4.30;99.90;;;;;;7403249;19;19942;-71
2023/03/03 00:45:35;;;;;;;;;;;4.10;99.90;;;;;;7406056;19;20385;-71
2023/03/03 00:48:23;;;;;;;16.60;8.20;;;4.00;99.90;;;;;;7404962;19;20344;-71
2023/03/03 00:50:53;;;;;;;23.48;11.05;;;4.50;99.90;;;;;;7404039;19;19978;-71
2023/03/03 00:53:24;;;;;;;18.83;8.77;;;5.00;99.90;;;;;;7403008;19;19910;-72
2023/03/03 00:55:54;;;;;;;27.92;10.05;;;3.80;99.90;;;;;;7403765;19;19990;-71
2023/03/03 00:58:26;;;;;;;24.80;10.77;;;4.60;99.90;;;;;;7402584;19;19918;-71
2023/03/03 01:00:58;;;;;;;17.80;8.13;;;3.10;99.90;;;;;;7399321;19;19942;-71
2023/03/03 01:03:28;;;;;;;16.95;7.15;;;3.90;99.90;;;;;;7406697;19;19926;-71
2023/03/03 01:05:58;;;;;;;20.55;7.40;;;3.90;99.90;;;;;;7404960;19;19915;-71
2023/03/03 01:08:27;;;;;;;23.08;7.70;;;3.90;99.90;;;;;;7402012;19;19933;-71
2023/03/03 01:10:59;;;;;;;17.77;7.13;;;4.00;99.90;;;;;;7403260;19;19919;-71
2023/03/03 01:13:33;;;;;;;21.65;7.57;;;4.00;99.90;;;;;;7405495;19;19915;-71
2023/03/03 01:16:05;;;;;;;42.50;8.40;;;4.20;99.90;;;;;;7404841;19;19929;-71
2023/03/03 01:18:35;;;;;;;20.65;7.65;;;3.80;99.90;;;;;;7402801;19;19923;-71
2023/03/03 01:21:04;;;;;;;24.40;7.78;;;3.90;99.90;;;;;;7403727;19;20276;-72
2023/03/03 01:23:34;;;;;;;13.80;6.45;;;3.90;99.90;;;;;;7401057;19;19946;-71
2023/03/03 01:26:15;;;;;;;38.03;7.78;;;2.90;99.90;;;;;;7404747;19;20003;-71
2023/03/03 01:28:44;;;;;;;20.25;7.40;;;3.60;99.90;;;;;;7405584;19;19918;-71
2023/03/03 01:31:17;;;;;;;16.50;6.88;;;4.20;99.90;;;;;;7401924;19;19919;-71
2023/03/03 01:33:50;;;;;;;19.70;6.85;;;3.70;99.90;;;;;;7404989;19;19950;-72
2023/03/03 01:36:25;;;;;;;16.45;8.07;;;3.20;99.90;;;;;;7404847;19;19923;-71
2023/03/03 01:38:54;;;;;;;18.08;6.35;;;4.10;99.90;;;;;;7402730;19;19986;-71
2023/03/03 01:41:23;;;;;;;13.30;5.53;;;4.00;99.90;;;;;;7400941;19;19970;-72
2023/03/03 01:43:52;;;;;;;12.48;5.57;;;3.90;99.90;;;;;;7405599;19;19946;-71
2023/03/03 01:46:48;;;;;;;14.27;5.43;;;3.70;99.90;;;;;;7403373;19;19918;-72
2023/03/03 01:49:20;;;;;;;11.75;6.05;;;3.50;99.90;;;;;;7400278;19;19922;-71
2023/03/03 01:51:56;;;;;;;12.20;4.88;;;3.60;99.90;;;;;;7402799;19;19929;-71
2023/03/03 01:54:32;;;;;;;15.43;5.05;;;3.40;99.90;;;;;;7403148;19;19982;-70
2023/03/03 01:57:04;;;;;;;;;;;4.00;99.90;;;;;;7407520;19;20472;-71
2023/03/03 01:59:36;;;;;;;17.40;5.95;;;3.80;99.90;;;;;;7401973;19;20560;-70
2023/03/03 02:02:10;;;;;;;17.83;5.78;;;3.70;99.90;;;;;;7400969;19;19945;-70
2023/03/03 02:04:39;;;;;;;19.52;6.00;;;3.80;99.90;;;;;;7401232;19;20343;-70
2023/03/03 02:07:11;;;;;;;14.68;5.47;;;4.50;99.90;;;;;;7404768;19;19923;-70
2023/03/03 02:09:48;;;;;;;19.88;6.57;;;3.20;99.90;;;;;;7399664;19;19926;-71
2023/03/03 02:12:20;;;;;;;18.58;5.82;;;3.60;99.90;;;;;;7402661;19;19915;-70
2023/03/03 02:14:51;;;;;;;21.92;6.53;;;3.70;99.90;;;;;;7400499;19;19970;-71
2023/03/03 02:17:27;;;;;;;30.90;6.97;;;4.40;99.90;;;;;;7400681;19;19933;-71
2023/03/03 02:19:59;;;;;;;;;;;3.60;99.90;;;;;;7403943;19;20021;-70
2023/03/03 02:22:36;;;;;;;31.63;7.03;;;2.70;99.90;;;;;;7401655;19;20241;-70
2023/03/03 02:25:09;;;;;;;47.25;7.05;;;3.70;99.90;;;;;;7399877;19;19922;-71
2023/03/03 02:27:41;;;;;;;33.80;7.78;;;2.70;99.90;;;;;;7400586;19;20466;-71
2023/03/03 02:30:13;;;;;;;18.48;6.72;;;3.90;99.90;;;;;;7398980;19;19907;-70
2023/03/03 02:32:50;;;;;;;42.67;7.13;;;2.60;99.90;;;;;;7402358;19;20007;-72
2023/03/03 02:35:32;;;;;;;35.88;5.82;;;3.70;99.90;;;;;;7402649;19;19938;-70
2023/03/03 02:38:09;;;;;;;25.48;5.80;;;2.70;99.90;;;;;;7400429;19;19922;-70
2023/03/03 02:40:43;;;;;;;42.92;7.22;;;3.50;99.90;;;;;;7402503;19;19959;-70
2023/03/03 02:43:20;;;;;;;25.52;5.90;;;4.10;99.90;;;;;;7399146;19;19918;-70
2023/03/03 02:45:49;;;;;;;11.63;5.03;;;3.70;99.90;;;;;;7400150;19;19922;-70
2023/03/03 02:48:18;;;;;;;11.85;5.10;;;3.30;99.90;;;;;;7403135;19;19922;-70
2023/03/03 02:50:49;;;;;;;36.65;5.47;;;3.60;99.90;;;;;;7402104;19;19941;-70
2023/03/03 02:53:18;;;;;;;31.02;5.38;;;3.20;99.90;;;;;;7402914;19;19967;-71
2023/03/03 02:55:47;;;;;;;12.50;4.53;;;3.60;99.90;;;;;;7404132;19;20383;-70
2023/03/03 02:58:19;;;;;;;14.13;4.90;;;3.90;99.90;;;;;;7401894;19;20365;-71
2023/03/03 03:00:48;;;;;;;7.05;3.65;;;3.00;99.90;;;;;;7409293;19;19933;-70
2023/03/03 03:03:17;;;;;;;19.10;4.53;;;2.80;99.90;;;;;;7406071;19;19926;-70
2023/03/03 03:05:46;;;;;;;15.15;4.57;;;2.80;99.90;;;;;;7406502;19;19915;-71
2023/03/03 03:08:16;;;;;;;28.67;5.88;;;3.50;99.90;;;;;;7408886;19;19922;-70
2023/03/03 03:10:45;;;;;;;56.97;7.00;;;3.20;99.90;;;;;;7409095;19;20356;-70
2023/03/03 03:13:14;;;;;;;71.20;7.38;;;2.30;99.90;;;;;;7408430;19;19931;-71
2023/03/03 03:15:47;;;;;;;30.77;5.20;;;3.70;99.90;;;;;;7406164;19;19919;-71
2023/03/03 03:18:16;;;;;;;75.63;7.10;;;;;;;;;;7407374;19;20253;-70
2023/03/03 03:20:46;;;;;;;38.85;4.55;;;2.70;99.90;;;;;;7407630;19;20338;-71
2023/03/03 03:23:16;;;;;;;21.15;4.03;;;3.40;99.90;;;;;;7408439;19;19926;-70
2023/03/03 03:25:46;;;;;;;7.35;2.63;;;3.30;99.90;;;;;;7405767;19;19935;-70
2023/03/03 03:28:17;;;;;;;7.07;2.92;;;2.90;99.90;;;;;;7405506;19;19936;-70
2023/03/03 03:30:49;;;;;;;16.90;3.60;;;3.50;99.90;;;;;;7407860;19;19986;-72
2023/03/03 03:33:18;;;;;;;35.70;4.22;;;2.20;99.90;;;;;;7407655;19;19946;-70
2023/03/03 03:35:48;;;;;;;13.50;3.70;;;3.30;99.90;;;;;;7409268;19;19922;-71
2023/03/03 03:38:17;;;;;;;25.77;5.53;;;2.80;99.90;;;;;;7409035;19;19918;-73
2023/03/03 03:40:47;;;;;;;33.58;5.03;;;3.50;99.90;;;;;;7408961;19;19926;-70
2023/03/03 03:43:16;;;;;;;59.38;6.90;;;2.50;99.90;;;;;;7406812;19;19925;-71
2023/03/03 03:45:45;;;;;;;46.13;6.50;;;3.10;99.90;;;;;;7405060;19;19914;-71
2023/03/03 03:48:18;;;;;;;39.00;6.25;;;2.20;99.90;;;;;;7405452;19;19974;-70
2023/03/03 03:50:49;;;;;;;95.75;8.57;;;3.40;99.90;;;;;;7406053;19;19930;-71
2023/03/03 03:53:19;;;;;;;28.95;5.43;;;3.50;99.90;;;;;;7409446;19;19931;-71
2023/03/03 03:55:49;;;;;;;49.17;6.15;;;3.10;99.90;;;;;;7407026;19;19950;-71
2023/03/03 03:58:19;;;;;;;61.50;7.22;;;2.10;99.90;;;;;;7408813;19;19942;-71
2023/03/03 04:00:49;;;;;;;46.17;5.47;;;2.70;99.90;;;;;;7407758;19;20285;-71
2023/03/03 04:03:21;;;;;;;78.90;9.25;;;2.00;99.90;;;;;;7408275;19;19922;-70
2023/03/03 04:05:50;;;;;;;49.85;7.00;;;3.10;99.90;;;;;;7404523;19;19915;-71
2023/03/03 04:08:19;;;;;;;48.03;7.45;;;2.40;99.90;;;;;;7406835;19;19946;-71
2023/03/03 04:10:48;;;;;;;40.38;8.23;;;;;;;;;;7404992;19;20383;-70
2023/03/03 04:13:17;;;;;;;38.22;7.07;;;2.60;99.90;;;;;;7404485;19;19982;-71
2023/03/03 04:15:46;;;;;;;39.92;9.20;;;2.10;99.90;;;;;;7404448;19;19978;-71
2023/03/03 04:18:15;;;;;;;70.55;8.02;;;3.30;99.90;;;;;;7407001;19;19923;-71
2023/03/03 04:20:47;;;;;;;57.40;8.25;;;3.30;99.90;;;;;;7406122;19;19926;-71
2023/03/03 04:23:16;;;;;;;71.30;8.32;;;1.70;99.90;;;;;;7402146;19;19914;-72
2023/03/03 04:25:47;;;;;;;55.17;8.38;;;2.80;99.90;;;;;;7404407;19;19941;-70
2023/03/03 04:28:17;;;;;;;71.88;8.48;;;2.60;99.90;;;;;;7407012;19;20271;-71
2023/03/03 04:30:46;;;;;;;101.15;10.93;;;2.30;99.90;;;;;;7406355;19;19930;-71
2023/03/03 04:33:15;;;;;;;81.72;7.82;;;2.10;99.90;;;;;;7404472;19;20321;-71
2023/03/03 04:35:50;;;;;;;67.65;8.18;;;2.60;99.90;;;;;;7405557;19;19988;-71
2023/03/03 04:38:19;;;;;;;86.38;9.05;;;2.20;99.90;;;;;;7409756;19;19974;-71
2023/03/03 04:40:48;;;;;;;174.20;12.20;;;3.00;99.90;;;;;;7406408;19;19945;-72
2023/03/03 04:43:17;;;;;;;107.70;10.95;;;2.70;99.90;;;;;;7404923;19;19926;-71
2023/03/03 04:45:46;;;;;;;59.35;8.02;;;3.10;99.90;;;;;;7403837;19;19935;-71
2023/03/03 04:48:15;;;;;;;87.47;10.18;;;3.00;99.90;;;;;;7406459;19;19931;-71
2023/03/03 04:50:44;;;;;;;128.77;10.45;;;2.00;99.90;;;;;;7405622;19;19918;-70
2023/03/03 04:53:16;;;;;;;79.85;8.00;;;2.80;99.90;;;;;;7402628;19;19926;-71
2023/03/03 04:55:45;;;;;;;199.10;16.17;;;2.80;99.90;;;;;;7402884;19;19929;-71
2023/03/03 04:58:14;;;;;;;49.45;6.63;;;1.90;99.90;;;;;;7405708;19;20278;-71
2023/03/03 05:00:43;;;;;;;168.43;11.80;;;1.50;99.90;;;;;;7404186;19;19919;-71
2023/03/03 05:03:14;;;;;;;173.18;12.65;;;1.80;99.90;;;;;;7403907;19;19915;-71
2023/03/03 05:05:44;;;;;;;77.22;7.03;;;1.70;99.90;;;;;;7403098;19;19929;-71
2023/03/03 05:08:16;;;;;;;113.72;10.75;;;1.40;99.90;;;;;;7405432;19;19943;-70
2023/03/03 05:10:45;;;;;;;150.45;12.50;;;2.10;99.90;;;;;;7403066;19;19922;-71
2023/03/03 05:13:16;;;;;;;132.75;9.57;;;1.70;99.90;;;;;;7404837;19;19929;-70
2023/03/03 05:15:45;;;;;;;123.95;12.05;;;1.70;99.90;;;;;;7402387;19;20009;-70
2023/03/03 05:18:14;;;;;;;98.18;9.13;;;1.60;99.90;;;;;;7405857;19;20376;-70
2023/03/03 05:20:43;;;;;;;62.58;6.43;;;2.30;99.90;;;;;;7403890;19;20332;-72
2023/03/03 05:23:12;;;;;;;128.30;9.30;;;2.10;99.90;;;;;;7401310;19;20378;-71
2023/03/03 05:25:45;;;;;;;109.63;10.05;;;1.30;99.90;;;;;;7401932;19;19926;-71
2023/03/03 05:28:14;;;;;;;;;;;3.00;99.90;;;;;;7408428;19;19953;-71
2023/03/03 05:30:43;;;;;;;134.70;10.38;;;2.00;99.90;;;;;;7405742;19;19936;-70
2023/03/03 05:33:16;;;;;;;88.95;7.90;;;1.20;99.90;;;;;;7402724;19;19942;-70
2023/03/03 05:35:45;;;;;;;148.05;11.05;;;1.10;99.90;;;;;;7404972;19;20256;-70
2023/03/03 05:38:14;;;;;;;61.95;6.63;;;2.20;99.90;;;;;;7401893;19;19925;-71
2023/03/03 05:40:46;;;;;;;96.95;8.55;;;0.90;99.90;;;;;;7402818;19;19974;-71
2023/03/03 05:43:15;;;;;;;41.42;5.35;;;1.80;99.90;;;;;;7399367;19;19946;-71
2023/03/03 05:45:44;;;;;;;35.40;6.40;;;1.90;99.90;;;;;;7404774;19;19986;-70
2023/03/03 05:48:13;;;;;;;103.72;10.90;;;1.50;99.90;;;;;;7403697;19;20344;-71
2023/03/03 05:50:42;;;;;;;72.35;8.43;;;2.00;99.90;;;;;;7402150;19;19938;-71
2023/03/03 05:53:11;;;;;;;90.38;9.88;;;0.70;99.90;;;;;;7401350;19;19915;-71
2023/03/03 05:55:40;;;;;;;42.40;7.88;;;;;;;;;;7401783;19;19918;-71
2023/03/03 05:58:12;;;;;;;100.45;8.23;;;0.60;99.90;;;;;;7404378;19;19946;-71
2023/03/03 06:00:41;;;;;;;59.72;7.38;;;0.80;99.90;;;;;;7401903;19;19926;-71
2023/03/03 06:03:18;;;;;;;62.90;6.70;;;0.90;99.90;;;;;;7400394;19;19914;-72
2023/03/03 06:05:47;;;;;;;59.20;6.43;;;0.50;99.90;;;;;;7402861;19;19921;-71
2023/03/03 06:08:16;;;;;;;33.75;5.32;;;1.10;99.90;;;;;;7400349;19;20348;-71
2023/03/03 06:10:45;;;;;;;66.47;6.60;;;2.10;99.90;;;;;;7404754;19;19942;-71
2023/03/03 06:13:17;;;;;;;76.78;6.55;;;2.20;99.90;;;;;;7400659;19;19922;-71
2023/03/03 06:15:46;;;;;;;52.35;7.22;;;2.20;99.90;;;;;;7402733;19;19917;-72
2023/03/03 06:18:15;;;;;;;72.80;7.97;;;0.80;99.90;;;;;;7403979;19;19926;-71
2023/03/03 06:20:44;;;;;;;117.10;8.05;;;0.80;99.90;;;;;;7404633;19;19951;-72
2023/03/03 06:23:14;;;;;;;66.28;5.25;;;0.80;99.90;;;;;;7403710;19;20333;-71
2023/03/03 06:25:45;;;;;;;66.05;7.65;;;;;;;;;;7400740;19;19920;-71
2023/03/03 06:28:14;;;;;;;18.63;3.72;;;1.20;99.90;;;;;;7403900;19;19982;-71
2023/03/03 06:30:45;;;;;;;86.70;6.38;;;1.90;99.90;;;;;;7400333;19;19928;-71
2023/03/03 06:33:15;;;;;;;101.75;8.88;;;1.90;99.90;;;;;;7402663;19;19937;-71
2023/03/03 06:35:45;;;;;;;48.05;5.95;;;0.90;99.90;;;;;;7406396;19;20244;-71
2023/03/03 06:38:14;;;;;;;79.47;8.13;;;0.80;99.90;;;;;;7409809;19;19922;-72
2023/03/03 06:40:43;;;;;;;65.03;8.13;;;1.20;99.90;;;;;;7406464;19;19923;-72
2023/03/03 06:43:12;;;;;;;79.07;6.38;;;1.80;99.90;;;;;;7405262;19;19925;-72
2023/03/03 06:45:42;;;;;;;68.07;6.80;;;1.30;99.90;;;;;;7410114;19;19919;-71
2023/03/03 06:48:13;;;;;;;50.08;5.65;;;0.80;99.90;;;;;;7407848;19;19984;-71
2023/03/03 06:50:42;;;;;;;79.22;7.15;;;1.80;99.90;;;;;;7408822;19;19918;-71
2023/03/03 06:53:15;;;;;;;89.57;7.55;;;1.20;99.90;;;;;;7411008;19;20269;-72
2023/03/03 06:55:50;;;;;;;48.28;5.30;;;1.60;99.90;;;;;;7406694;19;19918;-71
2023/03/03 06:58:36;;;;;;;61.92;6.57;;;1.60;99.90;;;;;;7406332;19;19934;-71
2023/03/03 07:01:16;;;;;;;61.60;6.40;;;1.80;99.90;;;;;;7406977;19;19926;-72
2023/03/03 07:03:51;;;;;;;50.08;5.47;;;1.90;99.90;;;;;;7405502;19;20630;-71
2023/03/03 07:06:25;;;;;;;50.58;6.07;;;2.00;99.90;;;;;;7407360;19;19942;-71
2023/03/03 07:08:56;;;;;;;48.65;5.65;;;1.60;99.90;;;;;;7408968;19;19970;-71
2023/03/03 07:11:25;;;;;;;87.07;8.32;;;1.70;99.90;;;;;;7409359;19;20328;-72
2023/03/03 07:13:57;;;;;;;74.93;7.47;;;1.60;99.90;;;;;;7406537;19;19996;-70
2023/03/03 07:16:29;;;;;;;80.38;7.65;;;0.50;99.90;;;;;;7408796;19;19922;-71
2023/03/03 07:19:20;;;;;;;71.90;6.85;;;1.60;99.90;;;;;;7405039;19;19929;-71
2023/03/03 07:21:49;;;;;;;65.35;7.53;;;0.40;99.90;;;;;;7408573;19;20459;-71
2023/03/03 07:24:29;;;;;;;76.07;6.57;;;0.10;99.90;;;;;;7402830;19;19928;-71
2023/03/03 07:27:08;;;;;;;40.08;5.00;;;1.30;99.90;;;;;;7405541;19;19914;-71
2023/03/03 07:29:40;;;;;;;54.70;6.10;;;1.60;99.90;;;;;;7407086;19;19919;-71
2023/03/03 07:32:39;;;;;;;84.72;7.05;;;1.20;99.90;;;;;;7408013;19;19937;-71
2023/03/03 07:35:30;;;;;;;59.22;5.43;;;0.90;99.90;;;;;;7406153;19;19926;-71
2023/03/03 07:37:59;;;;;;;40.45;4.78;;;1.90;99.90;;;;;;7405602;19;20310;-71
2023/03/03 07:40:37;;;;;;;69.20;7.13;;;1.80;99.90;;;;;;7403547;19;19915;-71
2023/03/03 07:43:29;;;;;;;39.50;4.30;;;1.70;99.90;;;;;;7403919;19;19930;-71
2023/03/03 07:46:04;;;;;;;15.88;3.13;;;1.40;99.90;;;;;;7409637;19;19954;-71
2023/03/03 07:48:38;;;;;;;39.72;4.72;;;2.00;99.90;;;;;;7404737;19;19922;-71
2023/03/03 07:51:16;;;;;;;39.85;4.63;;;1.40;99.90;;;;;;7405915;19;20278;-71
2023/03/03 07:53:49;;;;;;;78.75;6.70;;;0.60;99.90;;;;;;7405501;19;19918;-72
2023/03/03 07:56:29;;;;;;;32.55;5.40;;;2.20;99.90;;;;;;7406364;19;19962;-72
2023/03/03 07:58:58;;;;;;;35.17;5.45;;;2.20;99.90;;;;;;7402057;19;19930;-72
2023/03/03 08:01:41;;;;;;;12.57;4.30;;;1.30;99.90;;;;;;7405818;19;19926;-71
2023/03/03 08:04:23;;;;;;;31.80;4.47;;;1.30;99.90;;;;;;7405810;19;19978;-71
2023/03/03 08:06:56;;;;;;;10.82;3.85;;;2.60;99.90;;;;;;7404464;19;19937;-72
2023/03/03 08:09:49;;;;;;;14.88;4.80;;;2.20;99.90;;;;;;7405630;19;19926;-71
2023/03/03 08:12:38;;;;;;;14.77;4.20;;;1.80;99.90;;;;;;7403772;19;19986;-71
2023/03/03 08:15:25;;;;;;;22.67;4.80;;;1.20;99.90;;;;;;7403766;19;19925;-71
2023/03/03 08:17:56;;;;;;;8.82;4.18;;;2.00;99.90;;;;;;7403643;19;19941;-71
2023/03/03 08:20:46;;;;;;;8.13;4.43;;;2.40;99.90;;;;;;7403834;19;20313;-71
2023/03/03 08:23:19;;;;;;;11.85;4.18;;;2.20;99.90;;;;;;7404570;19;19922;-71
2023/03/03 08:25:48;;;;;;;17.85;4.10;;;2.60;99.90;;;;;;7403631;19;19922;-71
2023/03/03 08:28:18;;;;;;;6.28;3.40;;;1.10;99.90;;;;;;7403740;19;19918;-71
2023/03/03 08:30:48;;;;;;;6.45;3.67;;;1.70;99.90;;;;;;7406279;19;19915;-72
2023/03/03 08:33:18;;;;;;;7.72;3.63;;;2.00;99.90;;;;;;7405852;19;19922;-71
2023/03/03 08:35:49;;;;;;;6.75;3.80;;;2.80;99.90;;;;;;7403211;19;19938;-71
2023/03/03 08:38:23;;;;;;;5.18;2.72;;;1.60;99.90;;;;;;7403301;19;20551;-71
2023/03/03 08:40:52;;;;;;;6.47;3.35;;;3.10;99.90;;;;;;7403403;19;19923;-71
2023/03/03 08:43:21;;;;;;;11.13;3.60;;;1.80;99.90;;;;;;7401924;19;19922;-71
2023/03/03 08:45:51;;;;;;;7.53;3.35;;;2.70;99.90;;;;;;7403495;19;19926;-71
2023/03/03 08:48:23;;;;;;;7.55;3.63;;;2.10;99.90;;;;;;7406744;19;19974;-71
2023/03/03 08:50:52;;;;;;;8.35;3.55;;;2.70;99.90;;;;;;7403142;19;19922;-71
2023/03/03 08:53:24;;;;;;;11.13;3.78;;;2.20;99.90;;;;;;7402783;19;19925;-70
2023/03/03 08:55:53;;;;;;;6.25;3.95;;;2.90;99.90;;;;;;7401133;19;19932;-71
2023/03/03 08:58:23;;;;;;;6.95;3.78;;;2.50;99.90;;;;;;7405042;19;20392;-71
2023/03/03 09:00:52;;;;;;;15.10;6.22;;;2.20;99.90;;;;;;7402018;19;19922;-71
2023/03/03 09:03:21;;;;;;;6.53;3.80;;;2.40;99.90;;;;;;7401877;19;20261;-71
2023/03/03 09:05:49;;;;;;;8.48;4.78;;;2.10;99.90;;;;;;7402390;19;20325;-71
2023/03/03 09:08:19;;;;;;;10.30;5.07;;;2.70;99.90;;;;;;7402907;19;19911;-73
2023/03/03 09:10:50;;;;;;;6.70;3.47;;;2.00;99.90;;;;;;7402945;19;19926;-70
2023/03/03 09:13:21;;;;;;;6.63;2.95;;;2.50;99.90;;;;;;7405526;19;20292;-71
2023/03/03 09:15:51;;;;;;;9.38;5.03;;;2.90;99.90;;;;;;7403331;19;20303;-71
2023/03/03 09:18:21;;;;;;;6.93;3.15;;;3.30;99.90;;;;;;7403494;19;19923;-71
2023/03/03 09:20:52;;;;;;;6.32;4.03;;;2.70;99.90;;;;;;7407260;19;19978;-71
2023/03/03 09:23:34;;;;;;;5.35;3.50;;;3.00;99.90;;;;;;7404281;19;19943;-71
2023/03/03 09:26:38;;;;;;;5.35;2.85;;;3.40;99.90;;;;;;7402158;19;19919;-71
2023/03/03 09:29:22;;;;;;;8.60;3.97;;;2.30;99.90;;;;;;7399874;19;19996;-72
2023/03/03 09:31:53;;;;;;;15.93;6.65;;;3.00;99.90;;;;;;7401741;19;20014;-71
2023/03/03 09:34:26;;;;;;;12.95;6.40;;;3.60;99.90;;;;;;7402579;19;20340;-71
2023/03/03 09:36:58;;;;;;;10.68;5.57;;;3.70;99.90;;;;;;7401497;19;20320;-71
2023/03/03 09:39:30;;;;;;;6.75;3.28;;;3.00;99.90;;;;;;7401428;19;19922;-71
2023/03/03 09:42:41;;;;;;;5.55;2.83;;;3.90;99.90;;;;;;7401991;19;20269;-71
2023/03/03 09:45:41;;;;;;;5.53;3.35;;;3.40;99.90;;;;;;7398458;19;20343;-71
2023/03/03 09:48:33;;;;;;;7.35;3.75;;;3.80;99.90;;;;;;7400700;19;20405;-71
2023/03/03 09:51:13;;;;;;;10.70;3.95;;;2.20;99.90;;;;;;7403184;19;19923;-71
2023/03/03 09:54:05;;;;;;;5.07;2.95;;;3.70;99.90;;;;;;7401176;19;19914;-71
2023/03/03 09:56:41;;;;;;;5.18;3.25;;;3.20;99.90;;;;;;7401950;19;19922;-71
2023/03/03 09:59:25;;;;;;;5.32;2.85;;;3.10;99.90;;;;;;7401146;19;19942;-71
2023/03/03 10:02:19;;;;;;;9.55;4.07;;;2.40;99.90;;;;;;7399705;19;19915;-72
2023/03/03 10:05:10;;;;;;;4.00;2.47;;;3.20;99.90;;;;;;7398567;19;19929;-71
2023/03/03 10:07:51;;;;;;;4.57;2.63;;;2.80;99.90;;;;;;7400449;19;19918;-72
2023/03/03 10:10:33;;;;;;;5.45;3.28;;;5.30;99.90;;;;;;7399411;19;19911;-72
2023/03/03 10:13:14;;;;;;;5.78;2.88;;;3.30;99.90;;;;;;7402861;19;19948;-71
2023/03/03 10:15:57;;;;;;;4.40;3.22;;;3.70;99.90;;;;;;7400328;19;19919;-72
2023/03/03 10:18:41;;;;;;;7.68;3.30;;;3.30;99.90;;;;;;7400506;19;19935;-72
2023/03/03 10:21:11;;;;;;;;;;;4.40;99.90;;;;;;7402964;19;19921;-72
2023/03/03 10:23:58;;;;;;;5.00;3.10;;;3.80;99.90;;;;;;7399647;19;20347;-72
2023/03/03 10:26:49;;;;;;;8.38;3.47;;;4.50;99.90;;;;;;7399637;19;20352;-73
2023/03/03 10:29:32;;;;;;;8.60;3.83;;;4.30;99.90;;;;;;7399830;19;19963;-71
2023/03/03 10:32:41;;;;;;;9.20;3.40;;;3.80;99.90;;;;;;7402026;19;19951;-72
2023/03/03 10:35:49;;;;;;;7.80;3.15;;;4.20;99.90;;;;;;7398022;19;19926;-72
2023/03/03 10:38:48;;;;;;;13.10;3.53;;;4.70;99.90;;;;;;7399592;19;19922;-71
2023/03/03 10:41:52;;;;;;;11.20;3.42;;;5.50;99.90;;;;;;7397614;19;19918;-72
2023/03/03 10:45:00;;;;;;;4.88;2.70;;;4.80;99.90;;;;;;7399361;19;19919;-72
2023/03/03 10:47:43;;;;;;;3.80;2.80;;;4.50;99.90;;;;;;7399312;19;19978;-72
2023/03/03 10:50:22;;;;;;;7.88;3.17;;;4.30;99.90;;;;;;7403556;19;19922;-72
2023/03/03 10:53:15;;;;;;;7.13;3.03;;;4.90;99.90;;;;;;7401965;19;19952;-76
2023/03/03 10:55:52;;;;;;;5.88;2.78;;;4.80;99.90;;;;;;7398684;19;19943;-77
2023/03/03 10:58:51;;;;;;;3.88;2.72;;;4.20;99.90;;;;;;7398552;19;20336;-76
2023/03/03 11:01:28;;;;;;;9.20;3.72;;;5.10;99.90;;;;;;7400020;19;19926;-76
2023/03/03 11:04:23;;;;;;;3.80;2.38;;;6.40;99.90;;;;;;7397740;19;19939;-76
2023/03/03 11:07:00;;;;;;;9.55;3.08;;;5.30;99.90;;;;;;7401125;19;19922;-77
2023/03/03 11:09:45;;;;;;;8.15;3.13;;;6.20;99.90;;;;;;7397387;19;19942;-76
2023/03/03 11:12:29;;;;;;;7.93;3.13;;;5.30;99.90;;;;;;7398194;19;19932;-72
2023/03/03 11:15:17;;;;;;;4.75;3.03;;;5.50;99.90;;;;;;7402027;19;19931;-71
2023/03/03 11:18:00;;;;;;;5.88;1.85;;;5.60;99.90;;;;;;7398037;19;20253;-71
2023/03/03 11:20:38;;;;;;;4.35;1.80;;;5.50;99.90;;;;;;7404757;19;20283;-71
2023/03/03 11:23:23;;;;;;;3.80;2.15;;;5.40;99.90;;;;;;7404854;19;19922;-71
2023/03/03 11:26:02;;;;;;;2.83;1.90;;;5.60;99.90;;;;;;7404784;19;19914;-71
2023/03/03 11:28:47;;;;;;;6.85;2.25;;;5.60;99.90;;;;;;7406391;19;19943;-72
2023/03/03 11:31:26;;;;;;;6.18;2.08;;;5.40;99.90;;;;;;7404814;19;20567;-71
2023/03/03 11:34:04;;;;;;;5.25;2.47;;;6.90;99.90;;;;;;7404696;19;19990;-71
2023/03/03 11:36:36;;;;;;;;;;;6.10;99.90;;;;;;7409578;19;20002;-71
2023/03/03 11:39:09;;;;;;;3.35;2.13;;;6.20;99.90;;;;;;7407766;19;20398;-71
2023/03/03 11:41:44;;;;;;;2.17;0.95;;;6.20;99.90;;;;;;7404760;19;19938;-72
2023/03/03 11:44:24;;;;;;;3.28;1.13;;;6.20;99.90;;;;;;7404174;19;19929;-71
2023/03/03 11:46:59;;;;;;;3.30;1.35;;;6.20;99.90;;;;;;7409264;19;19927;-71
2023/03/03 11:49:35;;;;;;;3.50;3.17;;;5.80;99.90;;;;;;7406588;19;20328;-71
2023/03/03 11:52:16;;;;;;;2.33;1.23;;;6.00;99.90;;;;;;7406041;19;19926;-71
2023/03/03 11:54:51;;;;;;;2.67;1.83;;;6.40;99.90;;;;;;7404636;19;19923;-72
2023/03/03 11:57:31;;;;;;;2.72;1.65;;;5.90;99.90;;;;;;7406338;19;19962;-71
2023/03/03 12:00:19;;;;;;;5.32;2.00;;;5.70;99.90;;;;;;7404051;19;19915;-72
2023/03/03 12:03:00;;;;;;;6.22;2.30;;;5.80;99.90;;;;;;7403588;19;19915;-72
2023/03/03 12:05:44;;;;;;;12.55;3.67;;;5.70;99.90;;;;;;7405397;19;20368;-73
2023/03/03 12:08:24;;;;;;;5.22;1.95;;;5.60;99.90;;;;;;7403913;19;19929;-71
2023/03/03 12:11:03;;;;;;;2.83;2.08;;;5.70;99.90;;;;;;7405561;19;20289;-70
2023/03/03 12:13:46;;;;;;;3.70;1.65;;;5.70;99.90;;;;;;7403215;19;19942;-70
2023/03/03 12:16:22;;;;;;;4.18;2.05;;;5.70;99.90;;;;;;7403556;19;19922;-70
2023/03/03 12:19:14;;;;;;;4.10;2.08;;;5.70;99.90;;;;;;7403008;19;19983;-71
2023/03/03 12:22:05;;;;;;;3.47;2.00;;;5.70;99.90;;;;;;7407354;19;19938;-70
2023/03/03 12:25:06;;;;;;;4.10;1.75;;;6.00;99.90;;;;;;7401608;19;19919;-71
2023/03/03 12:27:44;;;;;;;2.40;1.35;;;6.00;99.90;;;;;;7403890;19;19929;-72
2023/03/03 12:30:58;;;;;;;5.13;1.40;;;5.90;99.90;;;;;;7400918;19;20336;-71
2023/03/03 12:33:39;;;;;;;2.35;1.20;;;6.00;99.90;;;;;;7392663;19;19927;-72
2023/03/03 12:36:23;;;;;;;3.85;1.30;;;6.00;99.90;;;;;;7402045;19;19957;-72
2023/03/03 12:38:57;;;;;;;3.10;1.30;;;6.00;99.90;;;;;;7400425;19;19914;-72
2023/03/03 12:41:35;;;;;;;1.75;1.42;;;6.10;99.90;;;;;;7405813;19;19956;-72
2023/03/03 12:44:15;;;;;;;3.70;1.42;;;6.00;99.90;;;;;;7402109;19;19995;-71
2023/03/03 12:47:00;;;;;;;6.72;1.63;;;6.40;99.90;;;;;;7402658;19;19918;-72
2023/03/03 12:49:38;;;;;;;4.13;1.17;;;6.40;99.90;;;;;;7402586;19;19918;-71
2023/03/03 12:52:22;;;;;;;3.42;0.90;;;6.60;99.90;;;;;;7402782;19;19927;-71
2023/03/03 12:55:10;;;;;;;6.45;0.88;;;6.90;99.90;;;;;;7402838;19;20356;-72
2023/03/03 12:57:45;;;;;;;1.95;0.80;;;7.40;99.90;;;;;;7404806;19;19910;-71
2023/03/03 13:00:30;;;;;;;1.30;0.50;;;7.70;99.90;;;;;;7402673;19;19919;-72
2023/03/03 13:03:11;;;;;;;2.70;0.80;;;7.80;99.90;;;;;;7402621;19;19966;-72
2023/03/03 13:05:53;;;;;;;1.60;0.93;;;7.70;99.90;;;;;;7404487;19;19929;-72
2023/03/03 13:08:48;;;;;;;2.53;0.85;;;7.70;99.90;;;;;;7401918;19;19936;-72
2023/03/03 13:11:37;;;;;;;2.25;0.50;;;7.60;99.90;;;;;;7403474;19;19922;-71
2023/03/03 13:14:15;;;;;;;2.50;1.00;;;7.50;99.90;;;;;;7401295;19;19924;-72
2023/03/03 13:16:51;;;;;;;2.72;0.82;;;7.50;99.90;;;;;;7402152;19;19918;-72
2023/03/03 13:19:32;;;;;;;1.45;0.70;;;7.40;99.90;;;;;;7402105;19;19964;-72
2023/03/03 13:22:08;;;;;;;1.83;0.50;;;7.30;99.90;;;;;;7401664;19;20261;-72
2023/03/03 13:24:44;;;;;;;4.03;0.55;;;7.70;99.90;;;;;;7401199;19;19914;-72
2023/03/03 13:27:16;;;;;;;3.85;0.75;;;7.90;99.90;;;;;;7402596;19;19974;-73
2023/03/03 13:29:55;;;;;;;3.35;1.02;;;7.80;99.90;;;;;;7402933;19;19922;-73
2023/03/03 13:32:29;;;;;;;3.80;1.02;;;7.70;99.90;;;;;;7401663;19;19915;-72
2023/03/03 13:35:08;;;;;;;3.47;0.80;;;7.60;99.90;;;;;;7401678;19;20259;-72
2023/03/03 13:37:42;;;;;;;2.22;0.77;;;7.40;99.90;;;;;;7403206;19;19919;-72